createdAt,value
2019-02-10T00:01:02.031Z,73.53
2019-02-10T00:03:33.992Z,73.67
2019-02-10T00:06:05.908Z,73.92
2019-02-10T00:08:38.021Z,74.25
2019-02-10T00:11:09.897Z,74.11
2019-02-10T00:13:42.805Z,74.18
2019-02-10T00:16:20.162Z,74.61
2019-02-10T00:18:52.071Z,74.65
2019-02-10T00:21:24.310Z,74.77
2019-02-10T00:23:56.088Z,74.86
2019-02-10T00:26:28.007Z,74.48
2019-02-10T00:28:59.929Z,74.64
2019-02-10T00:31:31.843Z,74.86
2019-02-10T00:34:03.696Z,74.81
2019-02-10T00:36:35.616Z,74.34
2019-02-10T00:39:10.709Z,74.84
2019-02-10T00:41:42.704Z,74.33
2019-02-10T00:44:14.571Z,74.55
2019-02-10T00:46:47.462Z,74.94
2019-02-10T00:49:19.240Z,74.89
2019-02-10T00:51:51.005Z,74.52
2019-02-10T00:54:22.791Z,74.57
2019-02-10T00:56:54.819Z,74.24
2019-02-10T00:59:26.684Z,74.28
2019-02-10T01:01:58.594Z,74.63
2019-02-10T01:04:30.390Z,74.99
2019-02-10T01:07:03.381Z,75.15
2019-02-10T01:09:35.231Z,75.15
2019-02-10T01:12:07.142Z,74.50
2019-02-10T01:14:39.035Z,74.53
2019-02-10T01:17:10.915Z,74.64
2019-02-10T01:19:42.756Z,74.94
2019-02-10T01:22:14.679Z,75.56
2019-02-10T01:24:46.637Z,75.88
2019-02-10T01:27:18.481Z,76.03
2019-02-10T01:29:50.415Z,76.11
2019-02-10T01:32:22.325Z,76.42
2019-02-10T01:34:54.114Z,76.47
2019-02-10T01:37:26.031Z,76.30
2019-02-10T01:39:57.886Z,76.31
2019-02-10T01:42:29.820Z,76.44
2019-02-10T01:45:01.659Z,76.72
2019-02-10T01:47:33.817Z,76.97
2019-02-10T01:50:07.144Z,77.29
2019-02-10T01:52:40.050Z,77.37
2019-02-10T01:55:13.603Z,77.50
2019-02-10T01:57:45.450Z,77.51
2019-02-10T02:00:17.976Z,77.31
2019-02-10T02:02:49.911Z,77.46
2019-02-10T02:05:21.679Z,77.43
2019-02-10T02:07:53.940Z,77.34
2019-02-10T02:10:25.859Z,77.46
2019-02-10T02:12:57.780Z,77.45
2019-02-10T02:15:29.896Z,77.31
2019-02-10T02:18:01.879Z,77.00
2019-02-10T02:20:33.723Z,76.34
2019-02-10T02:23:06.538Z,75.73
2019-02-10T02:25:38.466Z,75.94
2019-02-10T02:28:11.667Z,75.62
2019-02-10T02:30:43.447Z,76.07
2019-02-10T02:33:15.609Z,76.37
2019-02-10T02:35:47.387Z,76.33
2019-02-10T02:38:19.521Z,75.92
2019-02-10T02:40:51.374Z,75.78
2019-02-10T02:43:23.206Z,75.48
2019-02-10T02:45:55.046Z,75.80
2019-02-10T02:48:26.892Z,75.64
2019-02-10T02:51:00.790Z,75.68
2019-02-10T02:53:32.206Z,75.85
2019-02-10T02:56:04.058Z,75.81
2019-02-10T02:58:35.971Z,76.06
2019-02-10T03:01:07.934Z,76.29
2019-02-10T03:03:39.773Z,76.43
2019-02-10T03:06:11.706Z,76.76
2019-02-10T03:08:43.544Z,77.08
2019-02-10T03:11:15.461Z,77.06
2019-02-10T03:13:47.311Z,77.01
2019-02-10T03:16:19.161Z,77.20
2019-02-10T03:18:53.211Z,77.33
2019-02-10T03:21:24.548Z,77.58
2019-02-10T03:23:56.256Z,77.63
2019-02-10T03:26:27.981Z,77.50
2019-02-10T03:28:59.749Z,77.85
2019-02-10T03:31:31.553Z,77.78
2019-02-10T03:34:03.312Z,77.97
2019-02-10T03:36:35.021Z,77.89
2019-02-10T03:39:07.603Z,78.01
2019-02-10T03:41:39.630Z,78.08
2019-02-10T03:44:12.380Z,77.75
2019-02-10T03:46:44.343Z,77.87
2019-02-10T03:49:16.335Z,77.94
2019-02-10T03:51:48.066Z,77.82
2019-02-10T03:54:19.848Z,78.09
2019-02-10T03:56:51.706Z,78.06
2019-02-10T03:59:23.412Z,77.37
2019-02-10T04:01:55.267Z,77.88
2019-02-10T04:04:26.994Z,77.57
2019-02-10T04:06:58.710Z,77.30
2019-02-10T04:09:30.404Z,77.79
2019-02-10T04:12:02.613Z,77.51
2019-02-10T04:14:34.330Z,77.25
2019-02-10T04:17:06.257Z,77.15
2019-02-10T04:19:37.975Z,76.96
2019-02-10T04:22:09.699Z,77.05
2019-02-10T04:24:41.688Z,77.64
2019-02-10T04:27:13.481Z,77.51
2019-02-10T04:29:45.185Z,77.50
2019-02-10T04:32:17.868Z,77.20
2019-02-10T04:34:49.564Z,76.72
2019-02-10T04:37:21.278Z,76.67
2019-02-10T04:39:52.978Z,76.30
2019-02-10T04:42:24.699Z,76.35
2019-02-10T04:44:56.396Z,76.53
2019-02-10T04:47:28.101Z,76.61
2019-02-10T04:49:59.807Z,76.36
2019-02-10T04:52:31.770Z,76.61
2019-02-10T04:55:03.496Z,77.09
2019-02-10T04:57:36.259Z,76.99
2019-02-10T05:00:09.688Z,76.88
2019-02-10T05:02:41.531Z,77.03
2019-02-10T05:05:14.204Z,77.18
2019-02-10T05:07:54.102Z,76.81
2019-02-10T05:10:21.703Z,77.02
2019-02-10T05:12:53.036Z,76.87
2019-02-10T05:15:24.733Z,76.72
2019-02-10T05:17:56.451Z,77.07
2019-02-10T05:20:28.148Z,76.91
2019-02-10T05:22:59.863Z,76.68
2019-02-10T05:25:31.560Z,76.87
2019-02-10T05:28:03.352Z,76.97
2019-02-10T05:30:35.043Z,76.93
2019-02-10T05:33:07.321Z,76.92
2019-02-10T05:35:39.014Z,76.87
2019-02-10T05:38:11.268Z,77.02
2019-02-10T05:40:43.206Z,77.14
2019-02-10T05:43:15.157Z,76.86
2019-02-10T05:45:47.827Z,76.97
2019-02-10T05:48:19.543Z,76.97
2019-02-10T05:50:51.253Z,77.51
2019-02-10T05:53:22.959Z,77.24
2019-02-10T05:55:54.653Z,77.08
2019-02-10T05:58:26.356Z,77.07
2019-02-10T06:01:52.876Z,76.92
2019-02-10T06:04:24.665Z,77.14
2019-02-10T06:06:59.711Z,77.13
2019-02-10T06:09:31.494Z,77.34
2019-02-10T06:12:04.641Z,77.13
2019-02-10T06:14:36.571Z,77.24
2019-02-10T06:17:09.401Z,77.71
2019-02-10T06:19:41.104Z,77.39
2019-02-10T06:22:12.929Z,77.14
2019-02-10T06:24:45.721Z,77.19
2019-02-10T06:27:18.178Z,77.37
2019-02-10T06:29:52.606Z,77.27
2019-02-10T06:32:24.330Z,77.22
2019-02-10T06:34:56.041Z,77.73
2019-02-10T06:37:28.127Z,77.52
2019-02-10T06:40:00.343Z,77.33
2019-02-10T06:42:32.063Z,77.63
2019-02-10T06:45:03.783Z,77.55
2019-02-10T06:47:35.580Z,77.20
2019-02-10T06:50:08.815Z,77.33
2019-02-10T06:52:40.637Z,77.22
2019-02-10T06:55:13.691Z,77.31
2019-02-10T06:57:45.467Z,77.42
2019-02-10T07:00:34.677Z,77.03
2019-02-10T07:04:08.067Z,77.09
2019-02-10T07:06:39.766Z,76.94
2019-02-10T07:09:11.642Z,76.53
2019-02-10T07:11:43.613Z,76.57
2019-02-10T07:14:28.976Z,76.29
2019-02-10T07:18:11.233Z,76.04
2019-02-10T07:20:43.929Z,76.28
2019-02-10T07:24:44.957Z,75.92
2019-02-10T07:27:31.000Z,75.54
2019-02-10T07:30:43.058Z,75.47
2019-02-10T07:34:03.872Z,74.92
2019-02-10T07:37:33.781Z,75.27
2019-02-10T07:41:35.894Z,74.69
2019-02-10T07:45:20.108Z,74.44
2019-02-10T07:48:33.956Z,74.42
2019-02-10T07:51:31.631Z,73.96
2019-02-10T07:54:42.172Z,73.94
2019-02-10T07:57:53.221Z,73.84
2019-02-10T08:00:43.156Z,74.72
2019-02-10T08:04:07.162Z,74.33
2019-02-10T08:07:04.695Z,74.73
2019-02-10T08:10:36.086Z,74.53
2019-02-10T08:13:33.947Z,74.17
2019-02-10T08:16:50.061Z,74.74
2019-02-10T08:20:23.140Z,74.21
2019-02-10T08:23:43.950Z,73.68
2019-02-10T08:27:08.585Z,73.92
2019-02-10T08:30:54.984Z,73.61
2019-02-10T08:33:33.833Z,73.13
2019-02-10T08:37:12.238Z,73.29
2019-02-10T08:40:21.715Z,72.39
2019-02-10T08:43:20.940Z,72.53
2019-02-10T08:46:02.804Z,72.59
2019-02-10T08:49:46.683Z,72.34
2019-02-10T08:52:57.066Z,71.75
2019-02-10T08:55:28.711Z,71.88
2019-02-10T08:58:00.676Z,71.97
2019-02-10T09:00:32.381Z,71.31
2019-02-10T09:03:04.379Z,71.50
2019-02-10T09:05:36.164Z,71.17
2019-02-10T09:08:07.938Z,71.50
2019-02-10T09:10:39.656Z,70.65
2019-02-10T09:13:11.471Z,70.35
2019-02-10T09:15:43.182Z,70.54
2019-02-10T09:18:15.027Z,69.93
2019-02-10T09:20:46.977Z,70.06
2019-02-10T09:23:18.756Z,69.13
2019-02-10T09:25:50.490Z,69.71
2019-02-10T09:28:22.273Z,69.64
2019-02-10T09:30:53.977Z,69.78
2019-02-10T09:33:25.928Z,69.32
2019-02-10T09:35:57.637Z,69.63
2019-02-10T09:38:29.340Z,69.39
2019-02-10T09:41:01.111Z,69.72
2019-02-10T09:43:33.859Z,69.87
2019-02-10T09:46:05.625Z,69.92
2019-02-10T09:48:37.327Z,70.14
2019-02-10T09:51:09.229Z,70.29
2019-02-10T09:53:40.933Z,69.79
2019-02-10T09:56:12.774Z,69.98
2019-02-10T09:58:44.720Z,70.41
2019-02-10T10:01:16.421Z,70.28
2019-02-10T10:03:48.199Z,70.03
2019-02-10T10:06:20.142Z,70.01
2019-02-10T10:08:51.849Z,70.04
2019-02-10T10:11:23.793Z,70.31
2019-02-10T10:13:55.575Z,69.94
2019-02-10T10:16:27.275Z,69.63
2019-02-10T10:18:58.978Z,68.93
2019-02-10T10:21:30.719Z,68.98
2019-02-10T10:24:02.448Z,69.12
2019-02-10T10:26:34.471Z,68.32
2019-02-10T10:29:06.248Z,68.29
2019-02-10T10:31:38.016Z,67.95
2019-02-10T10:34:10.073Z,67.86
2019-02-10T10:36:41.771Z,67.54
2019-02-10T10:39:13.544Z,67.44
2019-02-10T10:41:45.533Z,66.81
2019-02-10T10:44:17.566Z,66.61
2019-02-10T10:46:49.257Z,66.22
2019-02-10T10:49:20.973Z,66.04
2019-02-10T10:51:52.746Z,65.53
2019-02-10T10:54:24.455Z,65.36
2019-02-10T10:56:56.238Z,64.52
2019-02-10T10:59:27.942Z,65.39
2019-02-10T11:01:59.653Z,65.35
2019-02-10T11:04:31.374Z,65.51
2019-02-10T11:07:03.066Z,65.08
2019-02-10T11:09:35.774Z,65.06
2019-02-10T11:12:07.552Z,64.28
2019-02-10T11:14:39.365Z,62.82
2019-02-10T11:17:11.154Z,62.34
2019-02-10T11:19:42.952Z,62.58
2019-02-10T11:22:14.749Z,62.56
2019-02-10T11:24:46.454Z,62.16
2019-02-10T11:27:18.162Z,62.21
2019-02-10T11:29:50.435Z,61.68
2019-02-10T11:32:22.133Z,61.26
2019-02-10T11:34:53.858Z,61.86
2019-02-10T11:37:27.065Z,61.54
2019-02-10T11:39:58.872Z,60.97
2019-02-10T11:42:30.580Z,61.16
2019-02-10T11:45:02.332Z,60.57
2019-02-10T11:47:34.066Z,60.59
2019-02-10T11:50:06.846Z,60.34
2019-02-10T11:52:38.650Z,59.42
2019-02-10T11:55:10.826Z,59.84
2019-02-10T11:57:42.680Z,59.17
2019-02-10T12:00:14.872Z,58.71
2019-02-10T12:02:46.898Z,58.86
2019-02-10T12:05:18.679Z,58.37
2019-02-10T12:07:50.376Z,58.69
2019-02-10T12:10:22.167Z,58.75
2019-02-10T12:12:53.876Z,57.60
2019-02-10T12:15:27.268Z,57.76
2019-02-10T12:17:59.487Z,57.58
2019-02-10T12:20:31.563Z,57.96
2019-02-10T12:23:03.343Z,57.70
2019-02-10T12:25:36.029Z,57.18
2019-02-10T12:28:07.809Z,57.59
2019-02-10T12:30:39.938Z,56.94
2019-02-10T12:33:11.995Z,56.68
2019-02-10T12:35:43.725Z,56.33
2019-02-10T12:38:15.429Z,56.25
2019-02-10T12:40:48.371Z,56.43
2019-02-10T12:43:20.375Z,56.74
2019-02-10T12:45:52.088Z,56.39
2019-02-10T12:48:23.797Z,56.61
2019-02-10T12:50:55.850Z,56.43
2019-02-10T12:53:27.893Z,56.32
2019-02-10T12:56:00.019Z,57.13
2019-02-10T12:58:31.739Z,57.26
2019-02-10T13:01:03.705Z,57.36
2019-02-10T13:03:35.412Z,56.74
2019-02-10T13:06:07.194Z,56.68
2019-02-10T13:08:39.167Z,56.22
2019-02-10T13:11:11.065Z,56.73
2019-02-10T13:13:42.940Z,56.99
2019-02-10T13:16:14.632Z,57.18
2019-02-10T13:18:46.405Z,56.80
2019-02-10T13:21:25.324Z,56.95
2019-02-10T13:23:57.457Z,56.85
2019-02-10T13:26:29.171Z,56.92
2019-02-10T13:29:00.888Z,57.66
2019-02-10T13:31:33.586Z,60.33
2019-02-10T13:34:07.253Z,65.23
2019-02-10T13:36:39.219Z,67.62
2019-02-10T13:39:25.866Z,70.45
2019-02-10T13:41:55.804Z,72.21
2019-02-10T13:44:27.547Z,73.27
2019-02-10T13:46:59.340Z,72.78
2019-02-10T13:49:31.146Z,70.75
2019-02-10T13:52:02.873Z,71.23
2019-02-10T13:54:34.600Z,72.48
2019-02-10T13:57:06.730Z,72.07
2019-02-10T13:59:38.500Z,72.85
2019-02-10T14:02:11.808Z,75.11
2019-02-10T14:04:43.822Z,77.11
2019-02-10T14:07:15.787Z,78.49
2019-02-10T14:09:47.645Z,80.61
2019-02-10T14:12:19.354Z,80.98
2019-02-10T14:14:51.079Z,81.37
2019-02-10T14:17:22.793Z,80.23
2019-02-10T14:19:54.506Z,79.21
2019-02-10T14:22:26.228Z,80.11
2019-02-10T14:24:58.186Z,80.84
2019-02-10T14:27:29.987Z,80.21
2019-02-10T14:30:01.936Z,79.92
2019-02-10T14:32:33.659Z,78.85
2019-02-10T14:35:06.159Z,78.32
2019-02-10T14:37:37.872Z,78.63
2019-02-10T14:40:09.961Z,77.72
2019-02-10T14:42:41.686Z,78.03
2019-02-10T14:45:13.593Z,77.62
2019-02-10T14:47:45.727Z,76.94
2019-02-10T14:50:17.506Z,77.14
2019-02-10T14:52:50.274Z,77.19
2019-02-10T14:55:21.985Z,78.03
2019-02-10T14:57:53.731Z,78.96
2019-02-10T15:00:25.497Z,78.79
2019-02-10T15:02:57.212Z,78.64
2019-02-10T15:05:28.936Z,78.43
2019-02-10T15:08:00.698Z,79.17
2019-02-10T15:10:32.518Z,80.05
2019-02-10T15:13:04.227Z,80.71
2019-02-10T15:15:35.945Z,80.88
2019-02-10T15:18:07.669Z,81.63
2019-02-10T15:20:39.461Z,80.49
2019-02-10T15:23:11.190Z,80.78
2019-02-10T15:25:43.052Z,80.74
2019-02-10T15:28:14.767Z,81.84
2019-02-10T15:30:46.524Z,81.37
2019-02-10T15:33:18.255Z,81.92
2019-02-10T15:35:49.950Z,80.05
2019-02-10T15:38:21.666Z,79.51
2019-02-10T15:40:53.436Z,78.78
2019-02-10T15:43:25.237Z,78.46
2019-02-10T15:45:56.937Z,78.08
2019-02-10T15:48:28.663Z,77.99
2019-02-10T15:51:00.367Z,77.74
2019-02-10T15:53:32.097Z,78.07
2019-02-10T15:56:03.800Z,77.40
2019-02-10T15:58:35.523Z,76.04
2019-02-10T16:01:07.475Z,76.44
2019-02-10T16:03:39.205Z,76.30
2019-02-10T16:06:10.928Z,75.88
2019-02-10T16:08:42.634Z,75.85
2019-02-10T16:11:14.609Z,76.59
2019-02-10T16:13:46.602Z,75.96
2019-02-10T16:16:18.379Z,76.28
2019-02-10T16:18:50.347Z,77.87
2019-02-10T16:21:22.150Z,80.09
2019-02-10T16:23:54.131Z,88.67
2019-02-10T16:26:25.955Z,92.67
2019-02-10T16:28:57.988Z,95.79
2019-02-10T16:31:31.331Z,95.72
2019-02-10T16:34:03.233Z,96.42
2019-02-10T16:36:35.019Z,96.91
2019-02-10T16:39:12.065Z,96.68
2019-02-10T16:41:43.779Z,96.79
2019-02-10T16:44:15.833Z,96.92
2019-02-10T16:46:47.548Z,97.66
2019-02-10T16:49:19.556Z,97.79
2019-02-10T16:51:51.262Z,97.00
2019-02-10T16:54:23.057Z,97.27
2019-02-10T16:56:54.774Z,98.03
2019-02-10T16:59:26.480Z,97.16
2019-02-10T17:01:58.203Z,96.67
2019-02-10T17:04:29.917Z,96.66
2019-02-10T17:07:01.906Z,97.42
2019-02-10T17:09:33.671Z,97.50
2019-02-10T17:12:05.472Z,96.86
2019-02-10T17:14:37.175Z,96.22
2019-02-10T17:17:09.606Z,95.85
2019-02-10T17:19:41.315Z,95.11
2019-02-10T17:22:13.062Z,94.32
2019-02-10T17:24:44.779Z,93.08
2019-02-10T17:27:17.540Z,92.03
2019-02-10T17:29:49.258Z,92.10
2019-02-10T17:32:20.988Z,90.72
2019-02-10T17:34:52.692Z,91.59
2019-02-10T17:37:24.501Z,91.26
2019-02-10T17:39:56.222Z,90.54
2019-02-10T17:42:28.016Z,90.68
2019-02-10T17:44:59.725Z,90.58
2019-02-10T17:47:31.882Z,90.93
2019-02-10T17:50:03.618Z,91.40
2019-02-10T17:52:35.582Z,91.72
2019-02-10T17:55:07.425Z,90.87
2019-02-10T17:57:39.234Z,90.81
2019-02-10T18:00:12.064Z,91.22
2019-02-10T18:02:43.799Z,91.32
2019-02-10T18:05:15.585Z,89.68
2019-02-10T18:07:47.545Z,89.82
2019-02-10T18:10:19.334Z,90.29
2019-02-10T18:12:51.056Z,89.29
2019-02-10T18:15:40.439Z,89.58
2019-02-10T18:18:29.521Z,88.56
2019-02-10T18:21:18.857Z,89.72
2019-02-10T18:23:57.310Z,89.76
2019-02-10T18:26:46.415Z,89.14
2019-02-10T18:29:40.119Z,89.29
2019-02-10T18:32:29.503Z,88.95
2019-02-10T18:35:15.273Z,88.73
2019-02-10T18:38:10.061Z,88.15
2019-02-10T18:41:04.789Z,87.17
2019-02-10T18:43:53.988Z,87.45
2019-02-10T18:46:35.118Z,87.77
2019-02-10T18:49:25.840Z,86.68
2019-02-10T18:52:11.626Z,87.89
2019-02-10T18:55:02.260Z,86.54
2019-02-10T18:58:05.036Z,87.42
2019-02-10T19:00:55.320Z,87.19
2019-02-10T19:03:31.814Z,86.81
2019-02-10T19:06:14.219Z,86.78
2019-02-10T19:08:53.861Z,86.75
2019-02-10T19:11:47.645Z,86.69
2019-02-10T19:14:44.363Z,86.30
2019-02-10T19:17:31.199Z,87.03
2019-02-10T19:20:15.091Z,87.19
2019-02-10T19:23:04.100Z,86.05
2019-02-10T19:25:48.340Z,86.03
2019-02-10T19:28:27.363Z,85.47
2019-02-10T19:31:30.485Z,85.61
2019-02-10T19:34:33.009Z,83.99
2019-02-10T19:37:26.732Z,84.12
2019-02-10T19:40:13.552Z,83.59
2019-02-10T19:42:57.695Z,83.42
2019-02-10T19:45:42.821Z,83.29
2019-02-10T19:48:34.491Z,83.28
2019-02-10T19:51:43.193Z,83.08
2019-02-10T19:54:37.177Z,82.45
2019-02-10T19:57:34.313Z,81.83
2019-02-10T20:00:22.245Z,82.10
2019-02-10T20:03:04.790Z,82.40
2019-02-10T20:06:10.395Z,81.06
2019-02-10T20:09:03.826Z,81.40
2019-02-10T20:12:10.889Z,81.13
2019-02-10T20:15:07.762Z,81.61
2019-02-10T20:17:58.397Z,81.17
2019-02-10T20:20:55.471Z,81.55
2019-02-10T20:23:52.131Z,80.84
2019-02-10T20:26:46.514Z,81.01
2019-02-10T20:29:35.966Z,81.22
2019-02-10T20:32:26.574Z,80.89
2019-02-10T20:35:15.805Z,79.79
2019-02-10T20:38:09.200Z,80.03
2019-02-10T20:40:45.969Z,80.19
2019-02-10T20:43:25.292Z,80.67
2019-02-10T20:46:14.893Z,80.33
2019-02-10T20:49:12.261Z,80.40
2019-02-10T20:52:11.865Z,80.03
2019-02-10T20:54:58.850Z,79.97
2019-02-10T20:57:36.989Z,79.65
2019-02-10T21:00:33.317Z,79.68
2019-02-10T21:03:13.594Z,78.40
2019-02-10T21:06:03.097Z,78.74
2019-02-10T21:08:40.843Z,78.84
2019-02-10T21:11:30.014Z,78.96
2019-02-10T21:14:23.769Z,78.40
2019-02-10T21:17:13.139Z,78.37
2019-02-10T21:20:04.657Z,79.63
2019-02-10T21:22:51.838Z,80.20
2019-02-10T21:25:52.822Z,80.99
2019-02-10T21:28:30.371Z,81.85
2019-02-10T21:31:24.225Z,82.75
2019-02-10T21:34:21.904Z,83.47
2019-02-10T21:37:03.803Z,84.80
2019-02-10T21:39:52.838Z,85.52
2019-02-10T21:42:32.654Z,86.50
2019-02-10T21:45:26.620Z,86.81
2019-02-10T21:48:06.351Z,87.16
2019-02-10T21:50:40.065Z,86.84
2019-02-10T21:53:11.817Z,87.70
2019-02-10T21:55:43.531Z,88.01
2019-02-10T21:58:15.280Z,88.37
2019-02-10T22:00:46.994Z,89.13
2019-02-10T22:03:19.005Z,89.79
2019-02-10T22:05:50.741Z,90.36
2019-02-10T22:08:22.484Z,91.30
2019-02-10T22:10:54.238Z,91.49
2019-02-10T22:13:25.946Z,91.10
2019-02-10T22:15:57.643Z,92.30
2019-02-10T22:18:29.440Z,91.90
2019-02-10T22:21:01.232Z,92.14
2019-02-10T22:23:32.946Z,92.38
2019-02-10T22:26:04.663Z,91.99
2019-02-10T22:28:36.362Z,91.85
2019-02-10T22:31:09.319Z,92.00
2019-02-10T22:33:41.040Z,89.70
2019-02-10T22:36:12.832Z,89.84
2019-02-10T22:38:44.584Z,88.89
2019-02-10T22:41:16.361Z,88.89
2019-02-10T22:43:48.153Z,88.57
2019-02-10T22:46:20.471Z,88.28
2019-02-10T22:48:52.252Z,87.71
2019-02-10T22:51:24.105Z,87.22
2019-02-10T22:53:56.105Z,87.06
2019-02-10T22:56:27.944Z,86.60
2019-02-10T22:58:59.653Z,86.65
2019-02-10T23:01:31.578Z,85.38
2019-02-10T23:04:03.390Z,85.58
2019-02-10T23:06:35.083Z,85.53
2019-02-10T23:09:13.847Z,84.94
2019-02-10T23:11:46.596Z,85.34
2019-02-10T23:14:18.370Z,84.94
2019-02-10T23:16:50.156Z,84.80
2019-02-10T23:19:21.835Z,85.36
2019-02-10T23:21:53.543Z,84.99
2019-02-10T23:24:25.498Z,84.13
2019-02-10T23:26:57.216Z,84.88
2019-02-10T23:29:28.916Z,83.88
2019-02-10T23:32:01.192Z,83.35
2019-02-10T23:34:32.884Z,83.10
2019-02-10T23:37:04.687Z,82.95
2019-02-10T23:39:36.856Z,82.89
2019-02-10T23:42:10.010Z,82.36
2019-02-10T23:44:49.024Z,82.56
2019-02-10T23:47:20.801Z,82.72
2019-02-10T23:49:52.510Z,82.75
2019-02-10T23:52:24.226Z,82.84
2019-02-10T23:54:55.927Z,83.91
2019-02-10T23:57:27.639Z,84.33
2019-02-10T23:59:59.348Z,83.35
